sensor_id;sensor_type;location;lat;lon;timestamp;P1;durP1;ratioP1;P2;durP2;ratioP2
54307;SDS011;40208;39.778;2.710;2022-09-16T00:01:53;8.07;;;1.85;;
54307;SDS011;40208;39.778;2.710;2022-09-16T00:04:38;4.28;;;1.60;;
54307;SDS011;40208;39.778;2.710;2022-09-16T00:07:23;3.65;;;1.40;;
54307;SDS011;40208;39.778;2.710;2022-09-16T00:10:08;5.28;;;1.90;;
54307;SDS011;40208;39.778;2.710;2022-09-16T00:12:53;6.32;;;1.67;;
54307;SDS011;40208;39.778;2.710;2022-09-16T00:15:45;10.52;;;1.98;;
54307;SDS011;40208;39.778;2.710;2022-09-16T00:18:32;2.85;;;1.40;;
54307;SDS011;40208;39.778;2.710;2022-09-16T00:21:17;3.67;;;1.65;;
54307;SDS011;40208;39.778;2.710;2022-09-16T00:24:02;5.95;;;1.42;;
54307;SDS011;40208;39.778;2.710;2022-09-16T00:26:46;9.07;;;1.77;;
54307;SDS011;40208;39.778;2.710;2022-09-16T00:29:31;5.28;;;1.48;;
54307;SDS011;40208;39.778;2.710;2022-09-16T00:32:16;5.05;;;1.85;;
54307;SDS011;40208;39.778;2.710;2022-09-16T00:35:01;6.07;;;1.60;;
54307;SDS011;40208;39.778;2.710;2022-09-16T00:37:46;2.85;;;1.40;;
54307;SDS011;40208;39.778;2.710;2022-09-16T00:40:30;6.72;;;1.52;;
54307;SDS011;40208;39.778;2.710;2022-09-16T00:43:17;4.95;;;1.30;;
54307;SDS011;40208;39.778;2.710;2022-09-16T00:46:02;5.85;;;1.23;;
54307;SDS011;40208;39.778;2.710;2022-09-16T00:48:48;3.83;;;1.35;;
54307;SDS011;40208;39.778;2.710;2022-09-16T00:51:34;13.10;;;2.03;;
54307;SDS011;40208;39.778;2.710;2022-09-16T00:54:20;7.40;;;1.90;;
54307;SDS011;40208;39.778;2.710;2022-09-16T00:57:06;8.57;;;1.73;;
54307;SDS011;40208;39.778;2.710;2022-09-16T00:59:54;2.85;;;1.23;;
54307;SDS011;40208;39.778;2.710;2022-09-16T01:02:42;5.93;;;1.50;;
54307;SDS011;40208;39.778;2.710;2022-09-16T01:05:29;5.65;;;1.70;;
54307;SDS011;40208;39.778;2.710;2022-09-16T01:08:13;9.30;;;2.10;;
54307;SDS011;40208;39.778;2.710;2022-09-16T01:10:58;4.07;;;1.33;;
54307;SDS011;40208;39.778;2.710;2022-09-16T01:13:43;6.88;;;1.63;;
54307;SDS011;40208;39.778;2.710;2022-09-16T01:16:33;6.68;;;1.92;;
54307;SDS011;40208;39.778;2.710;2022-09-16T01:44:49;6.82;;;1.70;;
54307;SDS011;40208;39.778;2.710;2022-09-16T01:53:20;7.22;;;1.58;;
54307;SDS011;40208;39.778;2.710;2022-09-16T01:56:32;6.85;;;1.73;;
54307;SDS011;40208;39.778;2.710;2022-09-16T02:05:10;7.47;;;1.67;;
54307;SDS011;40208;39.778;2.710;2022-09-16T02:11:16;5.38;;;1.25;;
54307;SDS011;40208;39.778;2.710;2022-09-16T02:14:12;8.98;;;2.05;;
54307;SDS011;40208;39.778;2.710;2022-09-16T02:17:03;7.07;;;1.58;;
54307;SDS011;40208;39.778;2.710;2022-09-16T02:19:54;3.58;;;1.60;;
54307;SDS011;40208;39.778;2.710;2022-09-16T02:22:48;3.70;;;1.48;;
54307;SDS011;40208;39.778;2.710;2022-09-16T02:25:37;3.53;;;1.40;;
54307;SDS011;40208;39.778;2.710;2022-09-16T02:28:28;4.75;;;1.35;;
54307;SDS011;40208;39.778;2.710;2022-09-16T02:31:16;4.25;;;1.35;;
54307;SDS011;40208;39.778;2.710;2022-09-16T02:36:56;6.13;;;1.98;;
54307;SDS011;40208;39.778;2.710;2022-09-16T02:39:49;5.35;;;1.75;;
54307;SDS011;40208;39.778;2.710;2022-09-16T02:42:38;4.85;;;1.40;;
54307;SDS011;40208;39.778;2.710;2022-09-16T02:45:25;6.03;;;1.55;;
54307;SDS011;40208;39.778;2.710;2022-09-16T02:51:28;4.57;;;1.92;;
54307;SDS011;40208;39.778;2.710;2022-09-16T02:57:37;9.40;;;1.58;;
54307;SDS011;40208;39.778;2.710;2022-09-16T03:00:22;5.50;;;1.90;;
54307;SDS011;40208;39.778;2.710;2022-09-16T03:03:07;3.42;;;1.45;;
54307;SDS011;40208;39.778;2.710;2022-09-16T03:06:05;5.57;;;1.90;;
54307;SDS011;40208;39.778;2.710;2022-09-16T03:08:55;5.10;;;2.00;;
54307;SDS011;40208;39.778;2.710;2022-09-16T03:20:59;5.28;;;1.80;;
54307;SDS011;40208;39.778;2.710;2022-09-16T03:27:07;5.15;;;1.95;;
54307;SDS011;40208;39.778;2.710;2022-09-16T03:30:04;4.53;;;1.88;;
54307;SDS011;40208;39.778;2.710;2022-09-16T03:32:53;4.30;;;1.60;;
54307;SDS011;40208;39.778;2.710;2022-09-16T03:35:48;5.25;;;1.92;;
54307;SDS011;40208;39.778;2.710;2022-09-16T03:38:35;4.80;;;2.00;;
54307;SDS011;40208;39.778;2.710;2022-09-16T03:41:22;6.10;;;1.83;;
54307;SDS011;40208;39.778;2.710;2022-09-16T03:44:07;4.13;;;1.50;;
54307;SDS011;40208;39.778;2.710;2022-09-16T03:46:52;8.10;;;1.75;;
54307;SDS011;40208;39.778;2.710;2022-09-16T03:49:37;3.25;;;1.60;;
54307;SDS011;40208;39.778;2.710;2022-09-16T03:52:21;6.70;;;1.92;;
54307;SDS011;40208;39.778;2.710;2022-09-16T03:55:06;7.75;;;1.98;;
54307;SDS011;40208;39.778;2.710;2022-09-16T03:57:52;5.57;;;1.88;;
54307;SDS011;40208;39.778;2.710;2022-09-16T04:00:37;5.88;;;1.88;;
54307;SDS011;40208;39.778;2.710;2022-09-16T04:03:22;3.17;;;1.90;;
54307;SDS011;40208;39.778;2.710;2022-09-16T04:06:07;5.35;;;2.05;;
54307;SDS011;40208;39.778;2.710;2022-09-16T04:08:53;3.25;;;1.63;;
54307;SDS011;40208;39.778;2.710;2022-09-16T04:11:38;3.83;;;1.67;;
54307;SDS011;40208;39.778;2.710;2022-09-16T04:14:23;4.28;;;1.80;;
54307;SDS011;40208;39.778;2.710;2022-09-16T04:17:08;3.38;;;1.58;;
54307;SDS011;40208;39.778;2.710;2022-09-16T04:19:53;5.82;;;2.05;;
54307;SDS011;40208;39.778;2.710;2022-09-16T04:22:37;3.63;;;1.60;;
54307;SDS011;40208;39.778;2.710;2022-09-16T04:25:22;4.22;;;1.50;;
54307;SDS011;40208;39.778;2.710;2022-09-16T04:28:07;5.38;;;1.70;;
54307;SDS011;40208;39.778;2.710;2022-09-16T04:30:52;8.95;;;1.85;;
54307;SDS011;40208;39.778;2.710;2022-09-16T04:33:37;4.55;;;1.58;;
54307;SDS011;40208;39.778;2.710;2022-09-16T04:36:22;2.85;;;1.55;;
54307;SDS011;40208;39.778;2.710;2022-09-16T04:39:07;5.63;;;2.22;;
54307;SDS011;40208;39.778;2.710;2022-09-16T04:41:52;7.68;;;1.98;;
54307;SDS011;40208;39.778;2.710;2022-09-16T04:44:37;6.05;;;1.75;;
54307;SDS011;40208;39.778;2.710;2022-09-16T04:47:22;10.15;;;2.10;;
54307;SDS011;40208;39.778;2.710;2022-09-16T04:50:07;8.85;;;1.88;;
54307;SDS011;40208;39.778;2.710;2022-09-16T04:52:53;11.30;;;2.20;;
54307;SDS011;40208;39.778;2.710;2022-09-16T04:55:37;5.65;;;2.70;;
54307;SDS011;40208;39.778;2.710;2022-09-16T04:58:22;9.90;;;3.72;;
54307;SDS011;40208;39.778;2.710;2022-09-16T05:01:11;8.88;;;3.63;;
54307;SDS011;40208;39.778;2.710;2022-09-16T05:03:59;11.73;;;3.28;;
54307;SDS011;40208;39.778;2.710;2022-09-16T05:06:45;8.07;;;2.95;;
54307;SDS011;40208;39.778;2.710;2022-09-16T05:09:30;6.90;;;3.03;;
54307;SDS011;40208;39.778;2.710;2022-09-16T05:12:15;25.30;;;6.53;;
54307;SDS011;40208;39.778;2.710;2022-09-16T05:15:00;20.35;;;4.88;;
54307;SDS011;40208;39.778;2.710;2022-09-16T05:17:45;15.45;;;3.60;;
54307;SDS011;40208;39.778;2.710;2022-09-16T05:20:30;11.93;;;3.45;;
54307;SDS011;40208;39.778;2.710;2022-09-16T05:23:15;13.38;;;3.38;;
54307;SDS011;40208;39.778;2.710;2022-09-16T05:26:07;5.85;;;2.55;;
54307;SDS011;40208;39.778;2.710;2022-09-16T05:28:54;9.73;;;2.40;;
54307;SDS011;40208;39.778;2.710;2022-09-16T05:31:39;9.10;;;2.58;;
54307;SDS011;40208;39.778;2.710;2022-09-16T05:34:25;7.45;;;3.03;;
54307;SDS011;40208;39.778;2.710;2022-09-16T05:37:11;21.08;;;2.78;;
54307;SDS011;40208;39.778;2.710;2022-09-16T05:39:56;7.70;;;2.38;;
54307;SDS011;40208;39.778;2.710;2022-09-16T05:42:41;7.78;;;2.70;;
54307;SDS011;40208;39.778;2.710;2022-09-16T05:45:26;17.05;;;2.85;;
54307;SDS011;40208;39.778;2.710;2022-09-16T05:48:11;6.18;;;2.38;;
54307;SDS011;40208;39.778;2.710;2022-09-16T05:50:56;22.00;;;3.17;;
54307;SDS011;40208;39.778;2.710;2022-09-16T05:53:42;9.43;;;2.70;;
54307;SDS011;40208;39.778;2.710;2022-09-16T05:56:28;14.63;;;3.05;;
54307;SDS011;40208;39.778;2.710;2022-09-16T05:59:14;17.27;;;3.08;;
54307;SDS011;40208;39.778;2.710;2022-09-16T06:02:00;10.35;;;3.60;;
54307;SDS011;40208;39.778;2.710;2022-09-16T06:04:45;9.73;;;3.13;;
54307;SDS011;40208;39.778;2.710;2022-09-16T06:07:30;10.95;;;3.30;;
54307;SDS011;40208;39.778;2.710;2022-09-16T06:10:15;14.85;;;3.55;;
54307;SDS011;40208;39.778;2.710;2022-09-16T06:13:01;19.23;;;3.63;;
54307;SDS011;40208;39.778;2.710;2022-09-16T06:15:47;9.15;;;3.00;;
54307;SDS011;40208;39.778;2.710;2022-09-16T06:18:34;21.40;;;4.60;;
54307;SDS011;40208;39.778;2.710;2022-09-16T06:21:20;16.50;;;3.17;;
54307;SDS011;40208;39.778;2.710;2022-09-16T06:24:05;14.00;;;3.60;;
54307;SDS011;40208;39.778;2.710;2022-09-16T06:26:53;27.67;;;5.05;;
54307;SDS011;40208;39.778;2.710;2022-09-16T06:29:38;26.58;;;6.68;;
54307;SDS011;40208;39.778;2.710;2022-09-16T06:32:23;22.60;;;6.07;;
54307;SDS011;40208;39.778;2.710;2022-09-16T06:35:08;26.60;;;5.57;;
54307;SDS011;40208;39.778;2.710;2022-09-16T06:37:53;15.63;;;4.85;;
54307;SDS011;40208;39.778;2.710;2022-09-16T06:40:37;14.02;;;5.10;;
54307;SDS011;40208;39.778;2.710;2022-09-16T06:43:22;17.98;;;5.57;;
54307;SDS011;40208;39.778;2.710;2022-09-16T06:46:09;12.02;;;6.65;;
54307;SDS011;40208;39.778;2.710;2022-09-16T06:48:59;22.65;;;8.05;;
54307;SDS011;40208;39.778;2.710;2022-09-16T06:51:44;25.10;;;11.07;;
54307;SDS011;40208;39.778;2.710;2022-09-16T06:54:28;92.43;;;48.55;;
54307;SDS011;40208;39.778;2.710;2022-09-16T06:57:13;67.68;;;32.55;;
54307;SDS011;40208;39.778;2.710;2022-09-16T06:59:58;37.42;;;15.68;;
54307;SDS011;40208;39.778;2.710;2022-09-16T07:02:43;15.90;;;8.48;;
54307;SDS011;40208;39.778;2.710;2022-09-16T07:05:27;12.85;;;4.90;;
54307;SDS011;40208;39.778;2.710;2022-09-16T07:08:12;15.82;;;3.90;;
54307;SDS011;40208;39.778;2.710;2022-09-16T07:11:04;9.10;;;3.10;;
54307;SDS011;40208;39.778;2.710;2022-09-16T07:13:59;13.05;;;2.63;;
54307;SDS011;40208;39.778;2.710;2022-09-16T07:16:45;6.25;;;3.08;;
54307;SDS011;40208;39.778;2.710;2022-09-16T07:19:30;17.90;;;4.07;;
54307;SDS011;40208;39.778;2.710;2022-09-16T07:22:15;9.80;;;4.13;;
54307;SDS011;40208;39.778;2.710;2022-09-16T07:25:00;14.77;;;4.70;;
54307;SDS011;40208;39.778;2.710;2022-09-16T07:27:45;20.25;;;6.30;;
54307;SDS011;40208;39.778;2.710;2022-09-16T07:30:30;24.40;;;6.53;;
54307;SDS011;40208;39.778;2.710;2022-09-16T07:33:17;14.68;;;6.00;;
54307;SDS011;40208;39.778;2.710;2022-09-16T07:36:03;12.10;;;5.40;;
54307;SDS011;40208;39.778;2.710;2022-09-16T07:38:48;8.65;;;4.22;;
54307;SDS011;40208;39.778;2.710;2022-09-16T07:41:37;12.75;;;3.80;;
54307;SDS011;40208;39.778;2.710;2022-09-16T07:44:24;8.63;;;3.50;;
54307;SDS011;40208;39.778;2.710;2022-09-16T07:47:09;6.93;;;3.00;;
54307;SDS011;40208;39.778;2.710;2022-09-16T07:49:54;9.02;;;3.38;;
54307;SDS011;40208;39.778;2.710;2022-09-16T07:52:39;6.57;;;2.95;;
54307;SDS011;40208;39.778;2.710;2022-09-16T07:55:24;6.70;;;2.47;;
54307;SDS011;40208;39.778;2.710;2022-09-16T07:58:09;6.97;;;3.10;;
54307;SDS011;40208;39.778;2.710;2022-09-16T08:00:54;8.40;;;2.60;;
54307;SDS011;40208;39.778;2.710;2022-09-16T08:03:39;13.90;;;2.40;;
54307;SDS011;40208;39.778;2.710;2022-09-16T08:06:26;5.75;;;2.25;;
54307;SDS011;40208;39.778;2.710;2022-09-16T08:09:12;10.38;;;3.05;;
54307;SDS011;40208;39.778;2.710;2022-09-16T08:11:58;11.65;;;2.83;;
54307;SDS011;40208;39.778;2.710;2022-09-16T08:14:45;8.70;;;2.72;;
54307;SDS011;40208;39.778;2.710;2022-09-16T08:17:30;10.00;;;2.55;;
54307;SDS011;40208;39.778;2.710;2022-09-16T08:20:15;12.05;;;2.38;;
54307;SDS011;40208;39.778;2.710;2022-09-16T08:23:00;8.65;;;2.42;;
54307;SDS011;40208;39.778;2.710;2022-09-16T08:25:45;7.38;;;2.45;;
54307;SDS011;40208;39.778;2.710;2022-09-16T08:28:30;8.02;;;2.10;;
54307;SDS011;40208;39.778;2.710;2022-09-16T08:31:15;6.75;;;2.20;;
54307;SDS011;40208;39.778;2.710;2022-09-16T08:34:01;8.13;;;2.90;;
54307;SDS011;40208;39.778;2.710;2022-09-16T08:36:45;8.55;;;2.05;;
54307;SDS011;40208;39.778;2.710;2022-09-16T08:39:30;6.10;;;1.80;;
54307;SDS011;40208;39.778;2.710;2022-09-16T08:45:17;10.18;;;1.95;;
54307;SDS011;40208;39.778;2.710;2022-09-16T08:51:17;6.07;;;1.85;;
54307;SDS011;40208;39.778;2.710;2022-09-16T08:54:05;7.60;;;1.73;;
54307;SDS011;40208;39.778;2.710;2022-09-16T08:56:57;5.30;;;1.67;;
54307;SDS011;40208;39.778;2.710;2022-09-16T08:59:45;8.55;;;1.98;;
54307;SDS011;40208;39.778;2.710;2022-09-16T09:02:41;6.95;;;1.75;;
54307;SDS011;40208;39.778;2.710;2022-09-16T09:30:21;10.07;;;1.60;;
54307;SDS011;40208;39.778;2.710;2022-09-16T09:36:42;8.63;;;1.77;;
54307;SDS011;40208;39.778;2.710;2022-09-16T09:39:48;6.82;;;1.90;;
54307;SDS011;40208;39.778;2.710;2022-09-16T09:46:07;9.02;;;1.88;;
54307;SDS011;40208;39.778;2.710;2022-09-16T09:52:18;8.70;;;2.67;;
54307;SDS011;40208;39.778;2.710;2022-09-16T09:55:23;5.82;;;1.42;;
54307;SDS011;40208;39.778;2.710;2022-09-16T10:01:07;5.95;;;1.80;;
54307;SDS011;40208;39.778;2.710;2022-09-16T10:03:52;6.25;;;1.35;;
54307;SDS011;40208;39.778;2.710;2022-09-16T10:06:39;7.78;;;1.98;;
54307;SDS011;40208;39.778;2.710;2022-09-16T10:09:26;9.32;;;2.03;;
54307;SDS011;40208;39.778;2.710;2022-09-16T10:12:10;6.97;;;1.70;;
54307;SDS011;40208;39.778;2.710;2022-09-16T10:14:55;10.30;;;2.13;;
54307;SDS011;40208;39.778;2.710;2022-09-16T10:17:46;12.27;;;2.33;;
54307;SDS011;40208;39.778;2.710;2022-09-16T10:20:34;4.50;;;1.40;;
54307;SDS011;40208;39.778;2.710;2022-09-16T10:29:00;8.52;;;1.77;;
54307;SDS011;40208;39.778;2.710;2022-09-16T10:31:59;5.70;;;1.90;;
54307;SDS011;40208;39.778;2.710;2022-09-16T10:34:49;9.27;;;1.88;;
54307;SDS011;40208;39.778;2.710;2022-09-16T10:37:35;9.57;;;1.80;;
54307;SDS011;40208;39.778;2.710;2022-09-16T10:40:20;6.25;;;1.58;;
54307;SDS011;40208;39.778;2.710;2022-09-16T10:43:12;8.65;;;1.70;;
54307;SDS011;40208;39.778;2.710;2022-09-16T10:45:58;6.32;;;1.48;;
54307;SDS011;40208;39.778;2.710;2022-09-16T10:48:42;11.13;;;2.03;;
54307;SDS011;40208;39.778;2.710;2022-09-16T10:51:29;10.50;;;2.10;;
54307;SDS011;40208;39.778;2.710;2022-09-16T10:54:26;10.73;;;2.03;;
54307;SDS011;40208;39.778;2.710;2022-09-16T11:00:26;11.43;;;2.17;;
54307;SDS011;40208;39.778;2.710;2022-09-16T11:03:28;14.68;;;2.17;;
54307;SDS011;40208;39.778;2.710;2022-09-16T11:10:14;10.15;;;2.35;;
54307;SDS011;40208;39.778;2.710;2022-09-16T11:29:21;6.95;;;1.85;;
54307;SDS011;40208;39.778;2.710;2022-09-16T11:41:15;10.55;;;2.03;;
54307;SDS011;40208;39.778;2.710;2022-09-16T11:47:04;16.25;;;3.53;;
54307;SDS011;40208;39.778;2.710;2022-09-16T11:53:04;38.05;;;18.77;;
54307;SDS011;40208;39.778;2.710;2022-09-16T11:58:59;93.88;;;44.40;;
54307;SDS011;40208;39.778;2.710;2022-09-16T12:05:26;113.82;;;40.10;;
54307;SDS011;40208;39.778;2.710;2022-09-16T12:11:34;92.10;;;27.88;;
54307;SDS011;40208;39.778;2.710;2022-09-16T12:14:28;37.50;;;11.45;;
54307;SDS011;40208;39.778;2.710;2022-09-16T12:17:22;7.65;;;2.17;;
54307;SDS011;40208;39.778;2.710;2022-09-16T12:23:25;10.68;;;2.67;;
54307;SDS011;40208;39.778;2.710;2022-09-16T12:28:59;9.48;;;2.75;;
54307;SDS011;40208;39.778;2.710;2022-09-16T12:34:58;8.75;;;1.70;;
54307;SDS011;40208;39.778;2.710;2022-09-16T12:37:48;10.13;;;1.73;;
54307;SDS011;40208;39.778;2.710;2022-09-16T12:40:43;9.68;;;2.15;;
54307;SDS011;40208;39.778;2.710;2022-09-16T12:50:04;9.82;;;2.15;;
54307;SDS011;40208;39.778;2.710;2022-09-16T12:56:25;6.25;;;1.98;;
54307;SDS011;40208;39.778;2.710;2022-09-16T12:59:31;6.18;;;1.63;;
54307;SDS011;40208;39.778;2.710;2022-09-16T13:05:45;5.53;;;1.52;;
54307;SDS011;40208;39.778;2.710;2022-09-16T13:08:34;6.10;;;1.80;;
54307;SDS011;40208;39.778;2.710;2022-09-16T13:11:21;5.05;;;1.20;;
54307;SDS011;40208;39.778;2.710;2022-09-16T13:14:22;4.05;;;1.38;;
54307;SDS011;40208;39.778;2.710;2022-09-16T13:17:08;3.15;;;1.10;;
54307;SDS011;40208;39.778;2.710;2022-09-16T13:19:56;3.88;;;1.42;;
54307;SDS011;40208;39.778;2.710;2022-09-16T13:23:03;3.72;;;1.50;;
54307;SDS011;40208;39.778;2.710;2022-09-16T13:26:02;5.50;;;1.48;;
54307;SDS011;40208;39.778;2.710;2022-09-16T13:28:53;6.65;;;1.30;;
54307;SDS011;40208;39.778;2.710;2022-09-16T13:31:45;7.78;;;1.60;;
54307;SDS011;40208;39.778;2.710;2022-09-16T13:34:31;9.93;;;2.60;;
54307;SDS011;40208;39.778;2.710;2022-09-16T13:37:22;5.22;;;1.80;;
54307;SDS011;40208;39.778;2.710;2022-09-16T13:40:17;4.97;;;1.60;;
54307;SDS011;40208;39.778;2.710;2022-09-16T13:45:59;6.32;;;1.63;;
54307;SDS011;40208;39.778;2.710;2022-09-16T13:49:08;7.38;;;1.80;;
54307;SDS011;40208;39.778;2.710;2022-09-16T13:52:07;3.28;;;1.30;;
54307;SDS011;40208;39.778;2.710;2022-09-16T13:54:55;7.93;;;1.92;;
54307;SDS011;40208;39.778;2.710;2022-09-16T13:57:49;5.78;;;1.48;;
54307;SDS011;40208;39.778;2.710;2022-09-16T14:03:55;4.20;;;1.20;;
54307;SDS011;40208;39.778;2.710;2022-09-16T14:15:34;4.35;;;1.38;;
54307;SDS011;40208;39.778;2.710;2022-09-16T14:18:30;5.97;;;1.25;;
54307;SDS011;40208;39.778;2.710;2022-09-16T14:21:18;5.57;;;1.30;;
54307;SDS011;40208;39.778;2.710;2022-09-16T14:24:12;5.50;;;1.70;;
54307;SDS011;40208;39.778;2.710;2022-09-16T14:27:01;3.25;;;1.52;;
54307;SDS011;40208;39.778;2.710;2022-09-16T14:29:52;4.57;;;1.30;;
54307;SDS011;40208;39.778;2.710;2022-09-16T14:32:41;3.58;;;1.33;;
54307;SDS011;40208;39.778;2.710;2022-09-16T14:35:27;8.63;;;1.27;;
54307;SDS011;40208;39.778;2.710;2022-09-16T14:38:12;5.03;;;1.25;;
54307;SDS011;40208;39.778;2.710;2022-09-16T14:41:03;3.90;;;1.38;;
54307;SDS011;40208;39.778;2.710;2022-09-16T14:43:50;3.42;;;1.30;;
54307;SDS011;40208;39.778;2.710;2022-09-16T14:46:40;5.13;;;1.20;;
54307;SDS011;40208;39.778;2.710;2022-09-16T14:49:27;3.75;;;1.75;;
54307;SDS011;40208;39.778;2.710;2022-09-16T14:52:17;6.07;;;1.30;;
54307;SDS011;40208;39.778;2.710;2022-09-16T14:55:12;6.03;;;1.60;;
54307;SDS011;40208;39.778;2.710;2022-09-16T14:58:03;6.32;;;1.55;;
54307;SDS011;40208;39.778;2.710;2022-09-16T15:00:52;3.35;;;1.42;;
54307;SDS011;40208;39.778;2.710;2022-09-16T15:03:45;3.58;;;1.30;;
54307;SDS011;40208;39.778;2.710;2022-09-16T15:06:38;11.70;;;1.67;;
54307;SDS011;40208;39.778;2.710;2022-09-16T15:12:43;7.90;;;1.80;;
54307;SDS011;40208;39.778;2.710;2022-09-16T15:15:31;5.38;;;1.67;;
54307;SDS011;40208;39.778;2.710;2022-09-16T15:18:26;8.48;;;1.38;;
54307;SDS011;40208;39.778;2.710;2022-09-16T15:21:17;4.25;;;1.40;;
54307;SDS011;40208;39.778;2.710;2022-09-16T15:24:05;4.75;;;1.35;;
54307;SDS011;40208;39.778;2.710;2022-09-16T15:27:00;7.30;;;1.35;;
54307;SDS011;40208;39.778;2.710;2022-09-16T15:29:46;8.88;;;1.38;;
54307;SDS011;40208;39.778;2.710;2022-09-16T15:32:41;8.30;;;1.58;;
54307;SDS011;40208;39.778;2.710;2022-09-16T15:35:28;6.07;;;1.17;;
54307;SDS011;40208;39.778;2.710;2022-09-16T15:38:19;3.25;;;1.38;;
54307;SDS011;40208;39.778;2.710;2022-09-16T15:41:09;4.80;;;1.25;;
54307;SDS011;40208;39.778;2.710;2022-09-16T15:43:57;4.75;;;1.33;;
54307;SDS011;40208;39.778;2.710;2022-09-16T15:46:44;7.55;;;1.25;;
54307;SDS011;40208;39.778;2.710;2022-09-16T15:49:31;4.97;;;1.65;;
54307;SDS011;40208;39.778;2.710;2022-09-16T15:52:21;6.75;;;1.95;;
54307;SDS011;40208;39.778;2.710;2022-09-16T15:55:06;10.25;;;1.95;;
54307;SDS011;40208;39.778;2.710;2022-09-16T15:57:51;7.53;;;1.58;;
54307;SDS011;40208;39.778;2.710;2022-09-16T16:04:06;9.02;;;1.77;;
54307;SDS011;40208;39.778;2.710;2022-09-16T16:06:54;7.50;;;1.60;;
54307;SDS011;40208;39.778;2.710;2022-09-16T16:09:41;5.50;;;1.75;;
54307;SDS011;40208;39.778;2.710;2022-09-16T16:12:26;3.88;;;1.52;;
54307;SDS011;40208;39.778;2.710;2022-09-16T16:15:11;13.27;;;2.75;;
54307;SDS011;40208;39.778;2.710;2022-09-16T16:17:57;10.13;;;1.30;;
54307;SDS011;40208;39.778;2.710;2022-09-16T16:20:44;6.50;;;1.42;;
54307;SDS011;40208;39.778;2.710;2022-09-16T16:23:29;5.45;;;1.60;;
54307;SDS011;40208;39.778;2.710;2022-09-16T16:26:14;5.15;;;1.08;;
54307;SDS011;40208;39.778;2.710;2022-09-16T16:28:59;6.65;;;1.42;;
54307;SDS011;40208;39.778;2.710;2022-09-16T16:31:59;4.80;;;1.40;;
54307;SDS011;40208;39.778;2.710;2022-09-16T16:34:48;3.25;;;1.40;;
54307;SDS011;40208;39.778;2.710;2022-09-16T16:37:37;7.28;;;1.75;;
54307;SDS011;40208;39.778;2.710;2022-09-16T16:40:22;66.57;;;13.25;;
54307;SDS011;40208;39.778;2.710;2022-09-16T16:43:07;4.85;;;1.40;;
54307;SDS011;40208;39.778;2.710;2022-09-16T16:45:53;4.30;;;1.33;;
54307;SDS011;40208;39.778;2.710;2022-09-16T16:48:38;5.47;;;1.20;;
54307;SDS011;40208;39.778;2.710;2022-09-16T16:51:23;4.40;;;1.33;;
54307;SDS011;40208;39.778;2.710;2022-09-16T16:54:09;4.88;;;1.10;;
54307;SDS011;40208;39.778;2.710;2022-09-16T16:56:56;3.05;;;1.25;;
54307;SDS011;40208;39.778;2.710;2022-09-16T16:59:41;5.43;;;1.30;;
54307;SDS011;40208;39.778;2.710;2022-09-16T17:02:26;4.38;;;1.33;;
54307;SDS011;40208;39.778;2.710;2022-09-16T17:05:11;4.03;;;1.52;;
54307;SDS011;40208;39.778;2.710;2022-09-16T17:07:56;6.35;;;1.80;;
54307;SDS011;40208;39.778;2.710;2022-09-16T17:10:41;5.53;;;1.23;;
54307;SDS011;40208;39.778;2.710;2022-09-16T17:13:28;22.20;;;3.03;;
54307;SDS011;40208;39.778;2.710;2022-09-16T17:16:14;8.65;;;1.80;;
54307;SDS011;40208;39.778;2.710;2022-09-16T17:19:04;13.27;;;2.90;;
54307;SDS011;40208;39.778;2.710;2022-09-16T17:21:49;14.20;;;2.10;;
54307;SDS011;40208;39.778;2.710;2022-09-16T17:24:34;5.57;;;1.70;;
54307;SDS011;40208;39.778;2.710;2022-09-16T17:27:19;5.75;;;1.58;;
54307;SDS011;40208;39.778;2.710;2022-09-16T17:30:05;7.85;;;1.90;;
54307;SDS011;40208;39.778;2.710;2022-09-16T17:32:51;10.88;;;1.90;;
54307;SDS011;40208;39.778;2.710;2022-09-16T17:35:36;6.75;;;1.40;;
54307;SDS011;40208;39.778;2.710;2022-09-16T17:38:21;6.22;;;2.05;;
54307;SDS011;40208;39.778;2.710;2022-09-16T17:41:07;8.93;;;2.20;;
54307;SDS011;40208;39.778;2.710;2022-09-16T17:43:54;6.32;;;2.00;;
54307;SDS011;40208;39.778;2.710;2022-09-16T17:46:40;6.45;;;1.63;;
54307;SDS011;40208;39.778;2.710;2022-09-16T17:49:26;4.63;;;1.73;;
54307;SDS011;40208;39.778;2.710;2022-09-16T17:52:11;9.48;;;2.00;;
54307;SDS011;40208;39.778;2.710;2022-09-16T17:54:56;7.18;;;1.70;;
54307;SDS011;40208;39.778;2.710;2022-09-16T17:57:40;10.15;;;1.90;;
54307;SDS011;40208;39.778;2.710;2022-09-16T18:00:25;8.40;;;2.05;;
54307;SDS011;40208;39.778;2.710;2022-09-16T18:03:10;5.20;;;1.88;;
54307;SDS011;40208;39.778;2.710;2022-09-16T18:06:07;6.15;;;1.70;;
54307;SDS011;40208;39.778;2.710;2022-09-16T18:08:52;6.07;;;1.75;;
54307;SDS011;40208;39.778;2.710;2022-09-16T18:11:37;10.25;;;2.13;;
54307;SDS011;40208;39.778;2.710;2022-09-16T18:14:23;13.95;;;2.47;;
54307;SDS011;40208;39.778;2.710;2022-09-16T18:17:08;9.20;;;2.17;;
54307;SDS011;40208;39.778;2.710;2022-09-16T18:19:53;8.40;;;2.35;;
54307;SDS011;40208;39.778;2.710;2022-09-16T18:22:38;9.30;;;1.75;;
54307;SDS011;40208;39.778;2.710;2022-09-16T18:25:22;5.18;;;1.98;;
54307;SDS011;40208;39.778;2.710;2022-09-16T18:28:07;7.35;;;1.90;;
54307;SDS011;40208;39.778;2.710;2022-09-16T18:31:05;6.82;;;2.17;;
54307;SDS011;40208;39.778;2.710;2022-09-16T18:33:55;8.05;;;2.15;;
54307;SDS011;40208;39.778;2.710;2022-09-16T18:36:40;7.68;;;2.38;;
54307;SDS011;40208;39.778;2.710;2022-09-16T18:39:25;9.38;;;2.00;;
54307;SDS011;40208;39.778;2.710;2022-09-16T18:42:10;11.80;;;2.13;;
54307;SDS011;40208;39.778;2.710;2022-09-16T18:44:55;5.07;;;1.30;;
54307;SDS011;40208;39.778;2.710;2022-09-16T18:47:40;11.23;;;2.10;;
54307;SDS011;40208;39.778;2.710;2022-09-16T18:50:25;4.40;;;1.90;;
54307;SDS011;40208;39.778;2.710;2022-09-16T18:53:10;4.45;;;1.88;;
54307;SDS011;40208;39.778;2.710;2022-09-16T18:55:54;9.77;;;2.20;;
54307;SDS011;40208;39.778;2.710;2022-09-16T18:58:39;6.63;;;2.10;;
54307;SDS011;40208;39.778;2.710;2022-09-16T19:01:31;8.20;;;2.20;;
54307;SDS011;40208;39.778;2.710;2022-09-16T19:04:19;9.43;;;2.13;;
54307;SDS011;40208;39.778;2.710;2022-09-16T19:07:06;10.95;;;2.55;;
54307;SDS011;40208;39.778;2.710;2022-09-16T19:09:52;7.60;;;1.73;;
54307;SDS011;40208;39.778;2.710;2022-09-16T19:12:38;3.00;;;1.50;;
54307;SDS011;40208;39.778;2.710;2022-09-16T19:15:22;6.72;;;1.98;;
54307;SDS011;40208;39.778;2.710;2022-09-16T19:18:07;5.55;;;1.50;;
54307;SDS011;40208;39.778;2.710;2022-09-16T19:20:52;7.20;;;2.10;;
54307;SDS011;40208;39.778;2.710;2022-09-16T19:23:37;6.32;;;1.95;;
54307;SDS011;40208;39.778;2.710;2022-09-16T19:26:22;10.40;;;2.28;;
54307;SDS011;40208;39.778;2.710;2022-09-16T19:29:07;9.50;;;2.15;;
54307;SDS011;40208;39.778;2.710;2022-09-16T19:31:52;5.25;;;1.50;;
54307;SDS011;40208;39.778;2.710;2022-09-16T19:34:37;7.63;;;2.03;;
54307;SDS011;40208;39.778;2.710;2022-09-16T19:37:22;8.93;;;2.53;;
54307;SDS011;40208;39.778;2.710;2022-09-16T19:40:07;10.40;;;2.28;;
54307;SDS011;40208;39.778;2.710;2022-09-16T19:42:52;9.10;;;2.28;;
54307;SDS011;40208;39.778;2.710;2022-09-16T19:45:37;5.57;;;2.30;;
54307;SDS011;40208;39.778;2.710;2022-09-16T19:48:22;7.50;;;2.05;;
54307;SDS011;40208;39.778;2.710;2022-09-16T19:51:07;7.95;;;2.08;;
54307;SDS011;40208;39.778;2.710;2022-09-16T19:53:53;4.90;;;2.15;;
54307;SDS011;40208;39.778;2.710;2022-09-16T19:56:38;4.78;;;2.25;;
54307;SDS011;40208;39.778;2.710;2022-09-16T19:59:23;10.00;;;1.95;;
54307;SDS011;40208;39.778;2.710;2022-09-16T20:02:08;9.32;;;2.38;;
54307;SDS011;40208;39.778;2.710;2022-09-16T20:04:54;7.53;;;2.30;;
54307;SDS011;40208;39.778;2.710;2022-09-16T20:07:39;9.63;;;3.03;;
54307;SDS011;40208;39.778;2.710;2022-09-16T20:10:23;13.38;;;3.30;;